createdAt,value
2023-03-13T00:01:01.447Z,79.72
2023-03-13T00:03:29.608Z,80.77
2023-03-13T00:05:59.453Z,80.59
2023-03-13T00:08:30.468Z,81.36
2023-03-13T00:10:58.688Z,80.39
2023-03-13T00:13:26.569Z,79.52
2023-03-13T00:16:01.465Z,79.17
2023-03-13T00:18:29.392Z,78.47
2023-03-13T00:21:02.554Z,79.22
2023-03-13T00:23:30.996Z,79.47
2023-03-13T00:26:00.017Z,80.03
2023-03-13T00:28:31.877Z,79.39
2023-03-13T00:31:04.398Z,78.34
2023-03-13T00:33:33.364Z,78.35
2023-03-13T00:36:04.103Z,78.50
2023-03-13T00:38:32.692Z,78.64
2023-03-13T00:41:02.258Z,78.53
2023-03-13T00:43:31.046Z,78.41
2023-03-13T00:45:59.891Z,77.67
2023-03-13T00:48:27.957Z,77.81
2023-03-13T00:50:56.281Z,77.22
2023-03-13T00:53:25.780Z,77.20
2023-03-13T00:55:57.640Z,77.33
2023-03-13T00:58:26.762Z,77.10
2023-03-13T01:00:55.304Z,78.03
2023-03-13T01:03:25.881Z,77.46
2023-03-13T01:05:58.236Z,76.67
2023-03-13T01:08:29.619Z,77.55
2023-03-13T01:11:01.170Z,77.02
2023-03-13T01:13:29.502Z,77.32
2023-03-13T01:15:58.767Z,77.25
2023-03-13T01:18:26.805Z,78.05
2023-03-13T01:20:55.050Z,78.09
2023-03-13T01:23:23.235Z,77.89
2023-03-13T01:25:52.543Z,77.74
2023-03-13T01:28:20.481Z,78.32
2023-03-13T01:30:49.346Z,78.38
2023-03-13T01:33:17.281Z,76.99
2023-03-13T01:35:45.923Z,77.62
2023-03-13T01:38:15.141Z,77.39
2023-03-13T01:40:44.483Z,79.03
2023-03-13T01:43:27.063Z,78.71
2023-03-13T01:46:01.703Z,78.94
2023-03-13T01:48:44.613Z,77.94
2023-03-13T01:51:17.804Z,78.48
2023-03-13T01:53:48.497Z,78.11
2023-03-13T01:56:21.679Z,77.58
2023-03-13T01:58:53.469Z,78.65
2023-03-13T02:01:21.908Z,79.12
2023-03-13T02:03:51.392Z,78.99
2023-03-13T02:06:20.119Z,78.94
2023-03-13T02:08:52.860Z,79.05
2023-03-13T02:11:29.014Z,76.30
2023-03-13T02:14:00.278Z,76.88
2023-03-13T02:16:29.306Z,76.57
2023-03-13T02:18:57.359Z,76.79
2023-03-13T02:21:38.722Z,75.83
2023-03-13T02:24:15.610Z,75.00
2023-03-13T02:26:45.030Z,75.87
2023-03-13T02:29:18.394Z,74.88
2023-03-13T02:31:48.104Z,74.35
2023-03-13T02:34:21.835Z,75.22
2023-03-13T02:36:51.159Z,75.20
2023-03-13T02:39:23.757Z,74.25
2023-03-13T02:41:54.304Z,75.13
2023-03-13T02:44:22.683Z,76.45
2023-03-13T02:46:53.398Z,78.39
2023-03-13T02:49:28.586Z,78.18
2023-03-13T02:52:01.046Z,77.35
2023-03-13T02:54:34.620Z,77.09
2023-03-13T02:57:06.035Z,76.92
2023-03-13T02:59:35.784Z,76.10
2023-03-13T03:02:04.387Z,75.93
2023-03-13T03:04:32.401Z,76.79
2023-03-13T03:07:00.464Z,77.70
2023-03-13T03:09:29.102Z,78.07
2023-03-13T03:12:00.985Z,80.04
2023-03-13T03:14:31.574Z,80.38
2023-03-13T03:16:59.576Z,83.05
2023-03-13T03:19:28.650Z,83.75
2023-03-13T03:21:56.696Z,85.57
2023-03-13T03:24:24.638Z,86.63
2023-03-13T03:26:52.614Z,88.01
2023-03-13T03:29:28.810Z,89.03
2023-03-13T03:31:59.662Z,89.30
2023-03-13T03:34:27.730Z,90.00
2023-03-13T03:36:57.088Z,90.23
2023-03-13T03:39:25.157Z,89.53
2023-03-13T03:41:53.649Z,88.44
2023-03-13T03:44:22.807Z,87.21
2023-03-13T03:47:02.819Z,86.81
2023-03-13T03:49:35.357Z,87.37
2023-03-13T03:52:03.373Z,86.74
2023-03-13T03:54:37.607Z,86.26
2023-03-13T03:57:05.816Z,86.56
2023-03-13T03:59:34.653Z,87.71
2023-03-13T04:02:10.302Z,86.46
2023-03-13T04:04:38.445Z,87.42
2023-03-13T04:07:11.302Z,86.23
2023-03-13T04:09:40.768Z,84.79
2023-03-13T04:12:11.324Z,83.03
2023-03-13T04:14:43.794Z,81.30
2023-03-13T04:17:16.132Z,79.70
2023-03-13T04:19:45.857Z,79.29
2023-03-13T04:22:13.896Z,77.59
2023-03-13T04:24:47.792Z,76.48
2023-03-13T04:27:15.818Z,77.56
2023-03-13T04:29:45.143Z,76.87
2023-03-13T04:32:30.302Z,76.47
2023-03-13T04:35:17.136Z,77.12
2023-03-13T04:38:03.738Z,75.87
2023-03-13T04:40:49.234Z,77.58
2023-03-13T04:43:36.216Z,78.44
2023-03-13T04:46:30.191Z,78.55
2023-03-13T04:49:16.691Z,79.87
2023-03-13T04:52:22.873Z,79.66
2023-03-13T04:54:59.887Z,79.48
2023-03-13T04:57:43.334Z,80.65
2023-03-13T05:00:29.444Z,80.52
2023-03-13T05:03:12.925Z,79.47
2023-03-13T05:05:53.203Z,79.03
2023-03-13T05:08:42.412Z,78.83
2023-03-13T05:11:32.914Z,79.34
2023-03-13T05:14:17.686Z,80.00
2023-03-13T05:17:02.621Z,79.92
2023-03-13T05:19:53.403Z,80.89
2023-03-13T05:22:57.983Z,81.18
2023-03-13T05:25:34.597Z,80.57
2023-03-13T05:28:18.347Z,80.17
2023-03-13T05:30:52.233Z,78.79
2023-03-13T05:33:37.807Z,80.78
2023-03-13T05:36:24.407Z,80.00
2023-03-13T05:39:18.441Z,79.29
2023-03-13T05:41:49.257Z,79.34
2023-03-13T05:44:52.662Z,79.01
2023-03-13T05:47:41.675Z,77.54
2023-03-13T05:50:32.702Z,78.78
2023-03-13T05:53:21.582Z,78.00
2023-03-13T05:56:23.380Z,77.73
2023-03-13T05:59:05.234Z,77.87
2023-03-13T06:01:45.118Z,78.40
2023-03-13T06:04:20.895Z,78.82
2023-03-13T06:06:49.322Z,78.53
2023-03-13T06:09:18.415Z,78.99
2023-03-13T06:11:48.066Z,79.62
2023-03-13T06:14:16.148Z,79.69
2023-03-13T06:17:04.441Z,78.55
2023-03-13T06:19:32.555Z,77.39
2023-03-13T06:22:00.465Z,78.13
2023-03-13T06:24:28.418Z,77.18
2023-03-13T06:26:57.759Z,77.96
2023-03-13T06:29:25.725Z,78.48
2023-03-13T06:31:53.791Z,78.42
2023-03-13T06:34:21.796Z,78.26
2023-03-13T06:36:49.738Z,78.67
2023-03-13T06:39:17.605Z,78.83
2023-03-13T06:41:45.574Z,78.67
2023-03-13T06:44:14.843Z,79.41
2023-03-13T06:46:42.807Z,79.41
2023-03-13T06:49:11.225Z,80.16
2023-03-13T06:51:39.118Z,79.53
2023-03-13T06:54:07.808Z,80.53
2023-03-13T06:56:35.770Z,80.20
2023-03-13T06:59:04.394Z,80.53
2023-03-13T07:01:33.665Z,80.96
2023-03-13T07:04:01.636Z,80.37
2023-03-13T07:06:29.682Z,80.08
2023-03-13T07:08:57.541Z,79.67
2023-03-13T07:11:26.017Z,78.85
2023-03-13T07:14:06.527Z,78.89
2023-03-13T07:16:42.891Z,78.12
2023-03-13T07:19:11.071Z,78.61
2023-03-13T07:21:39.014Z,78.94
2023-03-13T07:24:07.705Z,80.02
2023-03-13T07:26:35.819Z,79.27
2023-03-13T07:29:03.985Z,78.87
2023-03-13T07:31:34.069Z,78.40
2023-03-13T07:34:03.588Z,77.47
2023-03-13T07:36:31.675Z,76.38
2023-03-13T07:38:59.578Z,76.54
2023-03-13T07:41:27.521Z,76.56
2023-03-13T07:43:57.120Z,75.43
2023-03-13T07:46:25.207Z,75.99
2023-03-13T07:48:55.297Z,75.87
2023-03-13T07:51:42.219Z,74.96
2023-03-13T07:54:10.770Z,75.50
2023-03-13T07:56:38.808Z,74.85
2023-03-13T07:59:07.098Z,74.81
2023-03-13T08:01:35.249Z,74.85
2023-03-13T08:04:03.810Z,76.83
2023-03-13T08:06:35.583Z,76.85
2023-03-13T08:09:05.121Z,77.23
2023-03-13T08:11:33.228Z,77.05
2023-03-13T08:14:01.359Z,77.17
2023-03-13T08:16:31.243Z,76.58
2023-03-13T08:19:01.109Z,77.01
2023-03-13T08:21:30.373Z,76.61
2023-03-13T08:24:01.275Z,77.17
2023-03-13T08:26:30.720Z,76.41
2023-03-13T08:29:00.604Z,74.90
2023-03-13T08:31:30.307Z,74.61
2023-03-13T08:33:58.524Z,75.87
2023-03-13T08:36:27.988Z,76.49
2023-03-13T08:38:59.299Z,74.87
2023-03-13T08:41:30.631Z,75.54
2023-03-13T08:43:59.294Z,75.36
2023-03-13T08:46:30.019Z,75.18
2023-03-13T08:48:58.030Z,74.29
2023-03-13T08:51:27.834Z,74.78
2023-03-13T08:53:56.908Z,74.62
2023-03-13T08:56:26.840Z,74.05
2023-03-13T08:58:58.189Z,74.30
2023-03-13T09:01:27.913Z,74.35
2023-03-13T09:03:56.452Z,74.06
2023-03-13T09:06:24.737Z,74.16
2023-03-13T09:08:52.790Z,74.07
2023-03-13T09:11:22.812Z,74.29
2023-03-13T09:13:51.982Z,73.85
2023-03-13T09:16:22.937Z,73.50
2023-03-13T09:18:51.647Z,73.19
2023-03-13T09:21:21.635Z,73.07
2023-03-13T09:23:50.174Z,73.27
2023-03-13T09:26:22.264Z,74.12
2023-03-13T09:28:50.932Z,74.08
2023-03-13T09:31:22.433Z,72.83
2023-03-13T09:33:51.785Z,73.14
2023-03-13T09:36:22.539Z,72.89
2023-03-13T09:38:51.503Z,72.69
2023-03-13T09:41:27.098Z,72.84
2023-03-13T09:44:02.001Z,72.96
2023-03-13T09:46:38.431Z,73.05
2023-03-13T09:49:14.486Z,71.89
2023-03-13T09:51:48.057Z,71.10
2023-03-13T09:54:25.078Z,69.94
2023-03-13T09:56:57.612Z,70.12
2023-03-13T09:59:32.055Z,71.83
2023-03-13T10:02:05.485Z,70.41
2023-03-13T10:04:41.936Z,71.04
2023-03-13T10:07:12.585Z,70.36
2023-03-13T10:09:41.850Z,69.61
2023-03-13T10:12:16.440Z,69.17
2023-03-13T10:14:50.184Z,69.06
2023-03-13T10:17:31.015Z,68.98
2023-03-13T10:20:02.271Z,68.92
2023-03-13T10:22:32.371Z,68.33
2023-03-13T10:25:04.442Z,68.61
2023-03-13T10:27:32.354Z,68.85
2023-03-13T10:30:00.258Z,68.47
2023-03-13T10:32:29.617Z,67.92
2023-03-13T10:34:59.833Z,68.09
2023-03-13T10:37:29.742Z,68.11
2023-03-13T10:40:13.894Z,68.04
2023-03-13T10:42:46.088Z,68.16
2023-03-13T10:45:18.705Z,67.81
2023-03-13T10:47:55.779Z,69.46
2023-03-13T10:50:27.063Z,69.19
2023-03-13T10:52:56.274Z,69.63
2023-03-13T10:55:26.034Z,70.74
2023-03-13T10:57:59.522Z,70.03
2023-03-13T11:00:35.904Z,71.25
2023-03-13T11:03:08.185Z,70.88
2023-03-13T11:05:43.200Z,69.58
2023-03-13T11:08:23.022Z,67.96
2023-03-13T11:10:57.549Z,69.03
2023-03-13T11:13:36.836Z,70.06
2023-03-13T11:16:18.776Z,68.89
2023-03-13T11:19:10.940Z,66.83
2023-03-13T11:21:48.465Z,66.80
2023-03-13T11:24:24.288Z,68.32
2023-03-13T11:27:05.080Z,67.03
2023-03-13T11:29:42.994Z,67.24
2023-03-13T11:32:24.469Z,65.60
2023-03-13T11:34:59.298Z,66.58
2023-03-13T11:37:29.664Z,66.02
2023-03-13T11:40:07.995Z,65.39
2023-03-13T11:42:49.657Z,66.43
2023-03-13T11:45:41.221Z,65.15
2023-03-13T11:48:19.652Z,65.60
2023-03-13T11:50:53.547Z,63.84
2023-03-13T11:53:32.588Z,63.45
2023-03-13T11:56:08.981Z,62.15
2023-03-13T11:58:52.281Z,62.96
2023-03-13T12:01:21.415Z,63.23
2023-03-13T12:03:57.943Z,62.90
2023-03-13T12:06:32.072Z,62.53
2023-03-13T12:09:07.763Z,62.37
2023-03-13T12:11:43.840Z,61.79
2023-03-13T12:14:17.016Z,62.23
2023-03-13T12:16:49.346Z,62.30
2023-03-13T12:19:23.033Z,60.44
2023-03-13T12:21:54.501Z,61.27
2023-03-13T12:24:29.466Z,60.16
2023-03-13T12:27:02.620Z,61.29
2023-03-13T12:29:44.663Z,60.06
2023-03-13T12:32:17.687Z,60.53
2023-03-13T12:34:56.597Z,61.24
2023-03-13T12:37:34.369Z,60.46
2023-03-13T12:40:12.265Z,59.33
2023-03-13T12:42:47.136Z,60.39
2023-03-13T12:45:18.730Z,61.06
2023-03-13T12:48:38.778Z,58.75
2023-03-13T12:51:21.912Z,59.03
2023-03-13T12:54:14.217Z,58.75
2023-03-13T12:56:56.945Z,58.62
2023-03-13T12:59:31.477Z,58.98
2023-03-13T13:02:00.640Z,58.79
2023-03-13T13:04:30.364Z,59.36
2023-03-13T13:07:02.470Z,58.73
2023-03-13T13:09:33.560Z,58.74
2023-03-13T13:12:04.204Z,59.03
2023-03-13T13:15:11.034Z,58.50
2023-03-13T13:17:50.984Z,59.12
2023-03-13T13:20:49.984Z,57.01
2023-03-13T13:23:34.796Z,58.47
2023-03-13T13:26:49.181Z,56.49
2023-03-13T13:29:56.663Z,58.26
2023-03-13T13:32:47.374Z,58.02
2023-03-13T13:35:30.995Z,58.00
2023-03-13T13:38:36.543Z,58.73
2023-03-13T13:41:07.304Z,57.69
2023-03-13T13:43:36.569Z,57.93
2023-03-13T13:46:09.174Z,57.35
2023-03-13T13:48:40.113Z,58.88
2023-03-13T13:51:25.537Z,57.35
2023-03-13T13:53:59.895Z,57.88
2023-03-13T13:56:37.776Z,57.21
2023-03-13T13:59:22.846Z,56.52
2023-03-13T14:01:52.209Z,55.30
2023-03-13T14:04:34.620Z,53.52
2023-03-13T14:07:05.088Z,54.86
2023-03-13T14:09:37.637Z,54.79
2023-03-13T14:12:26.783Z,52.68
2023-03-13T14:15:09.264Z,53.57
2023-03-13T14:17:42.939Z,51.35
2023-03-13T14:20:36.518Z,52.29
2023-03-13T14:23:07.393Z,52.19
2023-03-13T14:25:45.107Z,53.21
2023-03-13T14:28:21.663Z,54.20
2023-03-13T14:30:51.362Z,52.20
2023-03-13T14:33:19.983Z,52.14
2023-03-13T14:35:49.505Z,50.95
2023-03-13T14:38:20.034Z,50.71
2023-03-13T14:40:48.843Z,50.54
2023-03-13T14:43:29.311Z,49.39
2023-03-13T14:45:57.273Z,50.06
2023-03-13T14:48:31.755Z,49.67
2023-03-13T14:51:15.564Z,49.73
2023-03-13T14:53:58.628Z,50.00
2023-03-13T14:56:35.491Z,51.37
2023-03-13T14:59:18.080Z,50.32
2023-03-13T15:01:47.220Z,50.60
2023-03-13T15:04:15.168Z,50.11
2023-03-13T15:06:44.537Z,49.89
2023-03-13T15:09:18.834Z,49.12
2023-03-13T15:11:56.621Z,49.40
2023-03-13T15:14:37.320Z,51.20
2023-03-13T15:17:12.615Z,49.81
2023-03-13T15:19:40.526Z,49.92
2023-03-13T15:22:14.858Z,49.83
2023-03-13T15:24:45.266Z,49.87
2023-03-13T15:27:18.074Z,49.16
2023-03-13T15:29:46.984Z,50.12
2023-03-13T15:32:24.935Z,50.95
2023-03-13T15:34:58.338Z,50.51
2023-03-13T15:37:28.433Z,50.42
2023-03-13T15:39:57.377Z,50.00
2023-03-13T15:42:26.104Z,49.87
2023-03-13T15:44:54.033Z,50.47
2023-03-13T15:47:23.230Z,50.29
2023-03-13T15:49:51.227Z,49.80
2023-03-13T15:52:22.720Z,50.27
2023-03-13T15:54:52.592Z,51.09
2023-03-13T15:57:24.008Z,51.11
2023-03-13T15:59:52.412Z,51.46
2023-03-13T16:02:22.291Z,51.24
2023-03-13T16:04:52.100Z,50.54
2023-03-13T16:07:21.705Z,49.98
2023-03-13T16:09:49.709Z,50.10
2023-03-13T16:12:19.043Z,50.73
2023-03-13T16:14:46.989Z,50.98
2023-03-13T16:17:16.903Z,51.14
2023-03-13T16:19:44.916Z,52.17
2023-03-13T16:22:13.547Z,52.66
2023-03-13T16:24:41.644Z,52.43
2023-03-13T16:27:14.977Z,51.52
2023-03-13T16:29:44.835Z,51.18
2023-03-13T16:32:14.036Z,50.78
2023-03-13T16:34:43.082Z,50.94
2023-03-13T16:37:13.544Z,51.11
2023-03-13T16:39:41.520Z,51.35
2023-03-13T16:42:09.619Z,50.71
2023-03-13T16:44:37.604Z,51.93
2023-03-13T16:47:16.697Z,52.34
2023-03-13T16:49:47.295Z,52.45
2023-03-13T16:52:16.795Z,52.35
2023-03-13T16:54:45.353Z,52.45
2023-03-13T16:57:15.119Z,52.31
2023-03-13T16:59:43.131Z,52.13
2023-03-13T17:02:16.918Z,51.82
2023-03-13T17:04:45.533Z,51.82
2023-03-13T17:07:22.037Z,51.55
2023-03-13T17:09:50.646Z,50.90
2023-03-13T17:12:19.245Z,50.40
2023-03-13T17:14:47.533Z,50.23
2023-03-13T17:17:19.704Z,50.48
2023-03-13T17:19:48.231Z,50.68
2023-03-13T17:22:18.094Z,51.20
2023-03-13T17:24:46.065Z,51.52
2023-03-13T17:27:15.839Z,51.43
2023-03-13T17:29:44.858Z,51.73
2023-03-13T17:32:13.796Z,51.42
2023-03-13T17:34:43.286Z,50.97
2023-03-13T17:37:15.572Z,53.12
2023-03-13T17:39:44.635Z,56.74
2023-03-13T17:42:13.272Z,59.16
2023-03-13T17:44:42.184Z,60.65
2023-03-13T17:47:18.454Z,61.49
2023-03-13T17:49:47.773Z,61.92
2023-03-13T17:52:17.383Z,62.48
2023-03-13T17:54:46.433Z,62.85
2023-03-13T17:57:16.705Z,63.46
2023-03-13T17:59:45.351Z,63.88
2023-03-13T18:02:15.052Z,64.45
2023-03-13T18:04:43.700Z,63.89
2023-03-13T18:07:18.870Z,64.78
2023-03-13T18:09:47.936Z,64.90
2023-03-13T18:12:16.485Z,65.29
2023-03-13T18:14:44.822Z,65.91
2023-03-13T18:17:16.766Z,66.97
2023-03-13T18:19:44.933Z,67.30
2023-03-13T18:22:16.735Z,67.22
2023-03-13T18:24:45.390Z,67.22
2023-03-13T18:27:14.773Z,67.36
2023-03-13T18:29:43.333Z,67.84
2023-03-13T18:32:13.695Z,68.66
2023-03-13T18:34:42.298Z,68.82
2023-03-13T18:37:21.809Z,69.68
2023-03-13T18:39:51.274Z,70.50
2023-03-13T18:42:19.663Z,70.65
2023-03-13T18:44:47.609Z,71.58
2023-03-13T18:47:18.070Z,71.95
2023-03-13T18:49:46.964Z,71.74
2023-03-13T18:52:14.986Z,72.34
2023-03-13T18:54:45.477Z,72.30
2023-03-13T18:57:15.959Z,72.64
2023-03-13T18:59:44.396Z,72.96
2023-03-13T19:02:15.550Z,73.54
2023-03-13T19:04:44.119Z,74.02
2023-03-13T19:07:15.100Z,75.10
2023-03-13T19:09:45.370Z,75.40
2023-03-13T19:12:16.569Z,76.11
2023-03-13T19:14:44.805Z,76.08
2023-03-13T19:17:20.100Z,77.02
2023-03-13T19:19:48.110Z,76.38
2023-03-13T19:22:16.040Z,76.91
2023-03-13T19:24:44.129Z,77.76
2023-03-13T19:27:16.889Z,78.46
2023-03-13T19:29:45.560Z,78.66
2023-03-13T19:32:15.332Z,78.93
2023-03-13T19:34:43.375Z,79.40
2023-03-13T19:37:12.392Z,80.43
2023-03-13T19:39:40.424Z,80.10
2023-03-13T19:42:08.789Z,80.15
2023-03-13T19:44:40.291Z,79.89
2023-03-13T19:47:08.323Z,78.90
2023-03-13T19:49:36.215Z,78.02
2023-03-13T19:52:04.318Z,77.32
2023-03-13T19:54:32.281Z,76.95
2023-03-13T19:57:00.305Z,77.10
2023-03-13T19:59:28.322Z,77.39
2023-03-13T20:01:57.703Z,78.91
2023-03-13T20:04:25.791Z,80.17
2023-03-13T20:06:53.717Z,82.67
2023-03-13T20:09:21.642Z,82.71
2023-03-13T20:11:49.901Z,83.61
2023-03-13T20:14:17.846Z,83.30
2023-03-13T20:16:48.895Z,84.16
2023-03-13T20:19:18.359Z,87.20
2023-03-13T20:21:46.699Z,89.49
2023-03-13T20:24:14.696Z,92.07
2023-03-13T20:26:42.919Z,95.33
2023-03-13T20:29:10.847Z,100.00
2023-03-13T20:31:38.773Z,100.00
2023-03-13T20:34:06.732Z,100.00
2023-03-13T20:36:36.073Z,100.00
2023-03-13T20:39:05.520Z,100.00
2023-03-13T20:41:33.656Z,100.00
2023-03-13T20:44:01.566Z,100.00
2023-03-13T20:46:29.558Z,100.00
2023-03-13T20:48:59.029Z,100.00
2023-03-13T20:51:27.786Z,100.00
2023-03-13T20:53:57.200Z,100.00
2023-03-13T20:56:25.119Z,100.00
2023-03-13T20:58:53.074Z,100.00
2023-03-13T21:01:22.429Z,100.00
2023-03-13T21:03:50.496Z,100.00
2023-03-13T21:06:19.764Z,100.00
2023-03-13T21:08:47.953Z,100.00
2023-03-13T21:11:19.456Z,100.00
2023-03-13T21:13:47.776Z,100.00
2023-03-13T21:16:17.036Z,100.00
2023-03-13T21:18:45.011Z,100.00
2023-03-13T21:21:17.123Z,100.00
2023-03-13T21:23:45.626Z,100.00
2023-03-13T21:26:13.755Z,100.00
2023-03-13T21:28:43.377Z,100.00
2023-03-13T21:31:12.733Z,100.00
2023-03-13T21:33:41.460Z,100.00
2023-03-13T21:36:10.365Z,100.00
2023-03-13T21:38:38.456Z,100.00
2023-03-13T21:41:10.699Z,100.00
2023-03-13T21:43:41.463Z,100.00
2023-03-13T21:46:11.713Z,100.00
2023-03-13T21:48:40.708Z,100.00
2023-03-13T21:51:09.587Z,100.00
2023-03-13T21:53:38.449Z,100.00
2023-03-13T21:56:07.203Z,100.00
2023-03-13T21:58:35.134Z,99.94
2023-03-13T22:01:03.406Z,98.25
2023-03-13T22:03:32.829Z,97.38
2023-03-13T22:06:00.711Z,96.78
2023-03-13T22:08:28.815Z,94.47
2023-03-13T22:10:58.680Z,92.72
2023-03-13T22:13:26.677Z,93.95
2023-03-13T22:15:54.772Z,93.01
2023-03-13T22:18:22.745Z,92.54
2023-03-13T22:20:52.049Z,93.90
2023-03-13T22:23:19.925Z,94.15
2023-03-13T22:25:48.213Z,92.91
2023-03-13T22:28:16.623Z,94.67
2023-03-13T22:30:45.939Z,94.48
2023-03-13T22:33:13.993Z,94.47
2023-03-13T22:35:42.209Z,93.88
2023-03-13T22:38:12.001Z,93.95
2023-03-13T22:40:39.937Z,93.54
2023-03-13T22:43:07.819Z,93.68
2023-03-13T22:45:36.379Z,94.01
2023-03-13T22:48:06.630Z,93.74
2023-03-13T22:50:34.855Z,93.35
2023-03-13T22:53:02.951Z,93.55
2023-03-13T22:55:33.363Z,93.45
2023-03-13T22:58:01.718Z,93.39
2023-03-13T23:00:29.647Z,92.76
2023-03-13T23:02:57.613Z,92.38
2023-03-13T23:05:25.626Z,92.60
2023-03-13T23:07:53.558Z,92.41
2023-03-13T23:10:21.655Z,93.50
2023-03-13T23:12:50.977Z,93.52
2023-03-13T23:15:18.976Z,93.05
2023-03-13T23:17:47.059Z,92.90
2023-03-13T23:20:16.135Z,93.71
2023-03-13T23:22:45.858Z,94.50
2023-03-13T23:25:14.858Z,93.58
2023-03-13T23:27:43.617Z,92.78
2023-03-13T23:30:15.771Z,92.47
2023-03-13T23:32:46.754Z,92.06
2023-03-13T23:35:16.938Z,91.95
2023-03-13T23:37:49.335Z,92.39
2023-03-13T23:40:17.627Z,91.93
2023-03-13T23:42:46.522Z,92.27
2023-03-13T23:45:15.980Z,92.06
2023-03-13T23:47:44.646Z,90.84
2023-03-13T23:50:12.990Z,91.28
2023-03-13T23:52:41.031Z,91.30
2023-03-13T23:55:09.945Z,90.58
2023-03-13T23:57:38.490Z,89.69
